Time;durP1;ratioP1;P1;durP2;ratioP2;P2;SDS_P1;SDS_P2;PMS_P1;PMS_P2;Temp;Humidity;BMP_temperature;BMP_pressure;BME280_temperature;BME280_humidity;BME280_pressure;Samples;Min_cycle;Max_cycle;Signal;HPM_P1;HPM_P2
2022/06/25 00:02:19;;;;;;;49.15;31.92;;;25.90;99.90;;;;;;5053517;28;20036;-65
2022/06/25 00:07:33;;;;;;;49.45;32.05;;;26.00;99.90;;;;;;5049277;28;20035;-67
2022/06/25 00:09:59;;;;;;;43.65;30.67;;;26.10;99.90;;;;;;5029854;28;20512;-67
2022/06/25 00:12:36;;;;;;;47.92;27.45;;;26.20;99.90;;;;;;5034627;28;20033;-68
2022/06/25 00:15:05;;;;;;;42.75;27.38;;;26.20;99.90;;;;;;5033927;28;20552;-67
2022/06/25 00:17:33;;;;;;;35.90;27.52;;;26.20;99.90;;;;;;5048269;28;20039;-65
2022/06/25 00:19:59;;;;;;;36.95;26.30;;;26.20;99.90;;;;;;5052812;28;20025;-66
2022/06/25 00:22:26;;;;;;;38.08;26.13;;;26.20;99.90;;;;;;5053878;28;20019;-69
2022/06/25 00:24:53;;;;;;;41.53;24.77;;;26.20;99.90;;;;;;5053725;28;20456;-65
2022/06/25 00:27:20;;;;;;;35.85;24.25;;;26.20;99.90;;;;;;5053644;28;20100;-66
2022/06/25 00:29:47;;;;;;;37.13;24.92;;;26.20;99.90;;;;;;5055835;28;20045;-66
2022/06/25 00:32:14;;;;;;;37.58;25.85;;;26.20;99.90;;;;;;5062574;28;20041;-66
2022/06/25 00:34:40;;;;;;;40.10;26.08;;;26.20;99.90;;;;;;5063048;28;20061;-66
2022/06/25 00:37:08;;;;;;;48.05;24.70;;;26.30;99.90;;;;;;5063738;28;20104;-64
2022/06/25 00:39:36;;;;;;;36.22;23.73;;;26.20;99.90;;;;;;5062451;28;20075;-66
2022/06/25 00:42:07;;;;;;;38.35;25.13;;;26.30;99.90;;;;;;5062024;28;20025;-66
2022/06/25 00:44:34;;;;;;;45.55;25.55;;;26.20;99.90;;;;;;5053513;28;20029;-68
2022/06/25 00:47:01;;;;;;;41.28;27.05;;;26.20;99.90;;;;;;5055871;28;20102;-69
2022/06/25 00:49:28;;;;;;;40.75;25.95;;;26.20;99.90;;;;;;5050183;28;20155;-67
2022/06/25 00:51:57;;;;;;;39.75;26.38;;;26.30;99.90;;;;;;5062777;28;20134;-65
2022/06/25 00:54:27;;;;;;;48.13;27.80;;;26.20;99.90;;;;;;5053352;28;20478;-71
2022/06/25 00:56:58;;;;;;;39.53;27.05;;;26.20;99.90;;;;;;5057252;28;20452;-66
2022/06/25 00:59:28;;;;;;;40.80;25.95;;;26.20;99.90;;;;;;5053192;28;20408;-69
2022/06/25 01:01:55;;;;;;;33.97;20.05;;;26.30;99.90;;;;;;5051260;28;20036;-66
2022/06/25 01:04:21;;;;;;;30.77;22.80;;;26.30;99.90;;;;;;5053090;28;20393;-65
2022/06/25 01:06:49;;;;;;;37.85;26.67;;;26.30;99.90;;;;;;5053508;28;20021;-65
2022/06/25 01:09:15;;;;;;;39.85;27.70;;;26.50;99.90;;;;;;5039880;28;20108;-65
2022/06/25 01:11:42;;;;;;;36.47;26.50;;;26.50;99.90;;;;;;5033104;28;20030;-68
2022/06/25 01:14:10;;;;;;;40.45;25.10;;;26.50;99.90;;;;;;5032992;28;20052;-68
2022/06/25 01:16:38;;;;;;;43.58;24.15;;;26.50;99.90;;;;;;5033149;28;20037;-66
2022/06/25 01:19:08;;;;;;;34.70;24.35;;;26.50;99.90;;;;;;5056318;28;20025;-67
2022/06/25 01:21:35;;;;;;;37.38;25.65;;;26.50;99.90;;;;;;5059083;28;20068;-69
2022/06/25 01:24:05;;;;;;;41.60;29.98;;;26.60;99.90;;;;;;5063143;28;20024;-70
2022/06/25 01:26:34;;;;;;;44.80;27.27;;;26.60;99.90;;;;;;5025517;28;20048;-65
2022/06/25 01:29:03;;;;;;;36.03;26.92;;;26.60;99.90;;;;;;5065129;28;20032;-65
2022/06/25 01:31:30;;;;;;;40.20;26.10;;;26.60;99.90;;;;;;5052208;28;20044;-65
2022/06/25 01:33:56;;;;;;;36.33;28.40;;;26.60;99.90;;;;;;5050100;28;20482;-66
2022/06/25 01:36:23;;;;;;;42.38;28.70;;;26.50;99.90;;;;;;5044065;28;20061;-65
2022/06/25 01:38:50;;;;;;;47.92;28.00;;;26.60;99.90;;;;;;5050779;28;20025;-64
2022/06/25 01:41:17;;;;;;;42.60;25.42;;;26.60;99.90;;;;;;5052724;28;20362;-68
2022/06/25 01:43:44;;;;;;;72.72;49.53;;;26.60;99.90;;;;;;5051257;28;20032;-69
2022/06/25 01:46:11;;;;;;;56.80;38.15;;;26.70;99.90;;;;;;5048613;28;20096;-68
2022/06/25 01:48:38;;;;;;;38.65;23.42;;;26.80;99.90;;;;;;5050500;28;20488;-66
2022/06/25 01:51:05;;;;;;;73.03;51.85;;;26.80;99.90;;;;;;5051518;28;20485;-66
2022/06/25 01:53:31;;;;;;;39.13;27.52;;;26.80;99.90;;;;;;5051366;28;20028;-68
2022/06/25 01:55:58;;;;;;;35.38;24.75;;;26.90;99.90;;;;;;5051539;28;20013;-67
2022/06/25 01:58:25;;;;;;;33.90;23.48;;;26.90;99.90;;;;;;5050805;28;20025;-66
2022/06/25 02:00:51;;;;;;;39.97;24.08;;;26.90;99.90;;;;;;5053978;28;20009;-67
2022/06/25 02:03:18;;;;;;;39.63;29.15;;;26.90;99.90;;;;;;5037352;28;20470;-67
2022/06/25 02:06:06;;;;;;;38.65;30.17;;;26.90;99.90;;;;;;5055801;28;20021;-66
2022/06/25 02:08:36;;;;;;;37.33;25.27;;;26.90;99.90;;;;;;5052822;28;20051;-66
2022/06/25 02:11:05;;;;;;;38.33;23.50;;;26.90;99.90;;;;;;5051795;28;20551;-67
2022/06/25 02:13:32;;;;;;;29.00;19.75;;;27.00;99.90;;;;;;5053149;28;20029;-67
2022/06/25 02:16:00;;;;;;;26.60;21.17;;;27.00;99.90;;;;;;5053700;28;20035;-66
2022/06/25 02:18:27;;;;;;;29.98;19.73;;;27.00;99.90;;;;;;5055425;28;20037;-67
2022/06/25 02:20:54;;;;;;;28.20;19.17;;;27.00;99.90;;;;;;5051072;28;20089;-66
2022/06/25 02:23:22;;;;;;;33.35;18.40;;;27.10;99.90;;;;;;5053959;28;20029;-65
2022/06/25 02:25:50;;;;;;;33.33;19.92;;;27.20;99.90;;;;;;5055769;28;20017;-66
2022/06/25 02:28:18;;;;;;;26.88;20.00;;;27.20;99.90;;;;;;5056384;28;20036;-65
2022/06/25 02:30:45;;;;;;;30.70;21.13;;;27.30;99.90;;;;;;5055659;28;20532;-66
2022/06/25 02:33:14;;;;;;;23.85;17.63;;;27.50;99.90;;;;;;5055874;28;20029;-65
2022/06/25 02:35:42;;;;;;;24.48;15.57;;;27.60;99.90;;;;;;5053155;28;20024;-66
2022/06/25 02:38:10;;;;;;;23.25;12.32;;;27.70;99.90;;;;;;5053893;28;20393;-66
2022/06/25 02:40:37;;;;;;;21.10;13.15;;;27.90;99.90;;;;;;5053932;28;20351;-65
2022/06/25 02:43:05;;;;;;;21.45;12.00;;;27.90;99.90;;;;;;5055866;28;20398;-64
2022/06/25 02:45:32;;;;;;;17.70;12.45;;;27.80;99.90;;;;;;5055412;28;20029;-65
2022/06/25 02:47:58;;;;;;;20.20;13.63;;;27.90;99.90;;;;;;5055085;28;20028;-66
2022/06/25 02:50:25;;;;;;;21.90;13.82;;;28.00;99.90;;;;;;5051626;28;20033;-66
2022/06/25 02:52:52;;;;;;;22.65;14.27;;;28.20;99.90;;;;;;5036519;28;20325;-65
2022/06/25 02:55:19;;;;;;;27.95;16.42;;;28.20;99.90;;;;;;5022568;28;20029;-66
2022/06/25 03:00:32;;;;;;;23.65;14.95;;;28.40;99.90;;;;;;5055645;28;20029;-66
2022/06/25 03:02:59;;;;;;;23.65;16.95;;;28.30;99.90;;;;;;5073835;23;20056;-66
2022/06/25 03:05:25;;;;;;;35.35;16.85;;;28.20;99.90;;;;;;5054240;28;20029;-66
2022/06/25 03:07:52;;;;;;;21.63;14.60;;;28.20;99.90;;;;;;5015894;28;20029;-65
2022/06/25 03:10:19;;;;;;;50.35;36.08;;;28.20;99.90;;;;;;5015614;28;20372;-67
2022/06/25 03:12:46;;;;;;;24.77;12.38;;;28.20;99.90;;;;;;5029332;28;20045;-65
2022/06/25 03:15:12;;;;;;;22.33;13.63;;;28.20;99.90;;;;;;5035171;28;20169;-65
2022/06/25 03:17:39;;;;;;;25.50;18.05;;;28.10;99.90;;;;;;5035720;28;20061;-67
2022/06/25 03:20:06;;;;;;;12.55;6.50;;;28.20;99.90;;;;;;5035289;28;20026;-68
2022/06/25 03:22:33;;;;;;;22.40;14.55;;;28.20;99.90;;;;;;5037048;28;20025;-66
2022/06/25 03:25:00;;;;;;;41.50;28.73;;;28.30;99.90;;;;;;5046228;28;20021;-67
2022/06/25 03:27:27;;;;;;;21.10;15.57;;;28.40;99.90;;;;;;5055010;28;20071;-66
2022/06/25 03:29:54;;;;;;;23.73;14.70;;;28.50;99.90;;;;;;5039987;28;20039;-65
2022/06/25 03:32:21;;;;;;;18.48;13.23;;;28.50;99.90;;;;;;5026161;28;20034;-64
2022/06/25 03:34:48;;;;;;;22.63;12.35;;;28.40;99.90;;;;;;5025244;28;20071;-67
2022/06/25 03:37:15;;;;;;;16.60;12.88;;;28.30;99.90;;;;;;5024989;28;20021;-65
2022/06/25 03:39:42;;;;;;;18.10;12.50;;;28.30;99.90;;;;;;5021006;28;20050;-66
2022/06/25 03:42:09;;;;;;;20.83;14.02;;;28.20;99.90;;;;;;5027170;28;20494;-66
2022/06/25 03:44:36;;;;;;;21.33;13.88;;;28.20;99.90;;;;;;5036794;28;20066;-66
2022/06/25 03:47:04;;;;;;;27.05;13.68;;;28.30;99.90;;;;;;5024480;28;20033;-66
2022/06/25 03:49:30;;;;;;;25.25;11.93;;;28.40;99.90;;;;;;5032618;28;20028;-66
2022/06/25 03:51:57;;;;;;;21.27;13.23;;;28.50;99.90;;;;;;5023374;28;20025;-67
2022/06/25 03:54:26;;;;;;;21.95;12.50;;;28.50;99.90;;;;;;5028124;28;20029;-67
2022/06/25 03:56:53;;;;;;;20.25;13.43;;;28.50;99.90;;;;;;5023736;28;20029;-66
2022/06/25 03:59:20;;;;;;;22.35;13.77;;;28.60;99.90;;;;;;5022419;28;20029;-66
2022/06/25 04:01:46;;;;;;;25.10;14.73;;;28.70;99.90;;;;;;5023475;28;20125;-66
2022/06/25 04:04:14;;;;;;;32.17;16.15;;;28.80;99.90;;;;;;5024494;28;20033;-66
2022/06/25 04:06:41;;;;;;;20.90;14.02;;;28.90;99.90;;;;;;5025713;28;20026;-66
2022/06/25 04:09:07;;;;;;;21.58;14.95;;;29.00;99.90;;;;;;5031702;28;20087;-66
2022/06/25 04:11:34;;;;;;;20.55;12.85;;;29.10;99.90;;;;;;5035017;28;20025;-66
2022/06/25 04:14:01;;;;;;;20.00;12.32;;;29.20;99.90;;;;;;5034420;28;20030;-65
2022/06/25 04:16:27;;;;;;;12.57;10.02;;;29.30;99.90;;;;;;5034452;28;20308;-66
2022/06/25 04:18:54;;;;;;;16.73;8.68;;;29.50;99.90;;;;;;5033626;28;20137;-66
2022/06/25 04:21:21;;;;;;;11.90;8.13;;;29.50;99.90;;;;;;5033984;28;20021;-67
2022/06/25 04:23:48;;;;;;;17.10;7.88;;;29.50;99.90;;;;;;5024318;28;20033;-66
2022/06/25 04:26:15;;;;;;;8.65;6.20;;;29.70;99.90;;;;;;5024023;28;20097;-68
2022/06/25 04:31:20;;;;;;;15.05;10.10;;;29.90;99.90;;;;;;5024828;28;20014;-67
2022/06/25 04:33:46;;;;;;;23.45;12.38;;;30.10;99.90;;;;;;5045328;23;20122;-66
2022/06/25 04:36:13;;;;;;;24.65;12.18;;;30.00;99.90;;;;;;5051505;28;20021;-67
2022/06/25 04:38:40;;;;;;;17.95;10.30;;;30.00;99.90;;;;;;5049899;28;20041;-68
2022/06/25 04:41:06;;;;;;;9.82;6.85;;;30.00;99.90;;;;;;5050296;28;20377;-68
2022/06/25 04:43:33;;;;;;;10.95;5.63;;;30.10;99.90;;;;;;5051687;28;20017;-68
2022/06/25 04:46:00;;;;;;;13.77;6.75;;;30.10;99.90;;;;;;5050843;28;20306;-67
2022/06/25 04:48:27;;;;;;;9.43;6.95;;;30.20;99.90;;;;;;5050975;28;20021;-66
2022/06/25 04:50:54;;;;;;;9.80;6.45;;;30.30;99.90;;;;;;5052463;28;20111;-66
2022/06/25 04:53:21;;;;;;;9.23;6.35;;;30.30;99.90;;;;;;5052157;28;20045;-66
2022/06/25 04:55:47;;;;;;;9.43;6.03;;;30.30;99.90;;;;;;5051166;28;20025;-67
2022/06/25 04:58:14;;;;;;;11.75;6.00;;;30.20;99.90;;;;;;5050772;28;20486;-67
2022/06/25 05:00:41;;;;;;;14.70;8.32;;;30.10;99.90;;;;;;5049847;28;20650;-66
2022/06/25 05:03:09;;;;;;;12.80;8.25;;;30.00;99.90;;;;;;5050320;28;20266;-66
2022/06/25 05:05:36;;;;;;;17.90;9.73;;;30.10;99.90;;;;;;5049765;28;20061;-67
2022/06/25 05:08:03;;;;;;;28.70;16.27;;;30.30;99.90;;;;;;5047872;28;20389;-65
2022/06/25 05:10:30;;;;;;;12.45;7.03;;;30.40;99.90;;;;;;5050833;28;20044;-67
2022/06/25 05:15:44;;;;;;;13.30;9.50;;;30.40;99.90;;;;;;5047999;28;20040;-65
2022/06/25 05:18:12;;;;;;;11.95;6.13;;;30.50;99.90;;;;;;5051373;28;20104;-65
2022/06/25 05:20:42;;;;;;;8.82;6.47;;;30.50;99.90;;;;;;5050061;28;20363;-65
2022/06/25 05:23:09;;;;;;;13.10;8.13;;;30.50;99.90;;;;;;5050690;28;20068;-65
2022/06/25 05:25:37;;;;;;;10.38;7.20;;;30.70;99.90;;;;;;5048206;28;20025;-67
2022/06/25 05:28:04;;;;;;;11.45;8.15;;;30.90;99.90;;;;;;5052570;28;20033;-66
2022/06/25 05:30:32;;;;;;;58.58;47.17;;;30.90;99.90;;;;;;5051925;28;20028;-63
2022/06/25 05:32:59;;;;;;;27.25;17.98;;;30.80;99.90;;;;;;5052585;28;20053;-67
2022/06/25 05:35:26;;;;;;;120.15;89.13;;;30.60;99.90;;;;;;5055198;28;20128;-67
2022/06/25 05:37:53;;;;;;;19.17;12.45;;;30.50;99.90;;;;;;5056861;28;20025;-67
2022/06/25 05:40:20;;;;;;;26.30;13.15;;;30.50;99.90;;;;;;5055585;28;20360;-66
2022/06/25 05:42:47;;;;;;;25.80;14.52;;;30.50;99.90;;;;;;5041907;28;20091;-66
2022/06/25 05:45:13;;;;;;;15.70;9.80;;;30.50;99.90;;;;;;5052574;28;20025;-67
2022/06/25 05:47:40;;;;;;;15.30;10.30;;;30.40;99.90;;;;;;5049794;28;20033;-67
2022/06/25 05:50:08;;;;;;;16.33;7.25;;;30.30;99.90;;;;;;5055375;28;20497;-66
2022/06/25 05:52:35;;;;;;;10.60;7.22;;;30.30;99.90;;;;;;5055491;28;20065;-65
2022/06/25 05:55:02;;;;;;;15.00;7.75;;;30.30;99.90;;;;;;5049403;28;20307;-66
2022/06/25 05:57:29;;;;;;;10.63;7.30;;;30.30;99.90;;;;;;5056101;28;20248;-63
2022/06/25 05:59:56;;;;;;;12.02;7.45;;;30.40;99.90;;;;;;5055822;28;20021;-66
2022/06/25 06:02:26;;;;;;;14.35;7.82;;;30.40;99.90;;;;;;5054645;28;20033;-66
2022/06/25 06:04:54;;;;;;;16.25;7.20;;;30.60;99.90;;;;;;5055804;28;20121;-65
2022/06/25 06:07:21;;;;;;;12.95;6.20;;;30.70;99.90;;;;;;5055675;28;20033;-65
2022/06/25 06:09:48;;;;;;;11.30;7.40;;;30.90;99.90;;;;;;5055394;28;20035;-68
2022/06/25 06:12:15;;;;;;;9.95;6.80;;;30.90;99.90;;;;;;5055981;28;20425;-65
2022/06/25 06:14:42;;;;;;;11.98;7.45;;;31.00;99.90;;;;;;5055736;28;20025;-66
2022/06/25 06:19:55;;;;;;;9.27;6.60;;;31.10;99.90;;;;;;4985076;28;20499;-66
2022/06/25 06:22:22;;;;;;;17.52;8.13;;;31.20;99.90;;;;;;4983444;28;20037;-68
2022/06/25 06:24:48;;;;;;;18.17;7.80;;;31.30;99.90;;;;;;4987109;28;20035;-67
2022/06/25 06:27:15;;;;;;;16.20;7.63;;;31.50;99.90;;;;;;4987831;28;20106;-66
2022/06/25 06:29:42;;;;;;;12.82;6.93;;;31.60;99.90;;;;;;4986990;28;20129;-66
2022/06/25 06:32:09;;;;;;;10.38;6.75;;;31.60;99.90;;;;;;4983257;28;20042;-68
2022/06/25 06:34:36;;;;;;;14.32;7.20;;;31.70;99.90;;;;;;4983081;28;20083;-65
2022/06/25 06:37:03;;;;;;;9.75;6.93;;;31.70;99.90;;;;;;4984438;28;20114;-66
2022/06/25 06:39:29;;;;;;;12.15;7.75;;;31.70;99.90;;;;;;4986716;28;20174;-67
2022/06/25 06:41:56;;;;;;;15.63;9.60;;;31.70;99.90;;;;;;4981378;28;20053;-67
2022/06/25 06:44:23;;;;;;;9.13;6.75;;;31.80;99.90;;;;;;4982575;28;20660;-66
2022/06/25 06:46:49;;;;;;;13.63;6.50;;;31.90;99.90;;;;;;4981235;28;20097;-66
2022/06/25 06:49:16;;;;;;;6.53;5.10;;;32.00;99.90;;;;;;4983022;28;20085;-66
2022/06/25 06:51:43;;;;;;;13.00;6.60;;;32.00;99.90;;;;;;4981770;28;20661;-66
2022/06/25 06:54:09;;;;;;;14.93;9.38;;;32.10;99.90;;;;;;4994738;28;20031;-66
2022/06/25 06:56:36;;;;;;;15.32;7.13;;;32.20;99.90;;;;;;5022368;28;20052;-67
2022/06/25 06:59:03;;;;;;;9.63;6.43;;;32.10;99.90;;;;;;5054652;28;20108;-67
2022/06/25 07:01:29;;;;;;;12.30;7.60;;;31.90;99.60;;;;;;5054330;28;20031;-67
2022/06/25 07:03:56;;;;;;;7.65;5.57;;;31.80;99.90;;;;;;5054708;28;20017;-67
2022/06/25 07:06:23;;;;;;;10.85;5.55;;;31.80;99.90;;;;;;5034906;28;20382;-67
2022/06/25 07:08:49;;;;;;;12.18;6.00;;;31.90;99.90;;;;;;5038106;28;20029;-68
2022/06/25 07:14:04;;;;;;;11.32;6.60;;;32.00;99.90;;;;;;5053966;28;20029;-66
2022/06/25 07:16:32;;;;;;;11.75;7.20;;;32.00;99.90;;;;;;5054817;28;20025;-66
2022/06/25 07:19:00;;;;;;;14.90;8.48;;;31.90;99.90;;;;;;5054707;28;20037;-65
2022/06/25 07:21:28;;;;;;;10.30;6.70;;;31.90;99.90;;;;;;5054616;28;20044;-66
2022/06/25 07:23:55;;;;;;;19.63;7.53;;;31.90;99.90;;;;;;5055089;28;20017;-66
2022/06/25 07:26:23;;;;;;;9.98;6.63;;;31.90;99.90;;;;;;5054264;28;20470;-67
2022/06/25 07:28:53;;;;;;;17.20;6.85;;;31.90;99.90;;;;;;5052986;28;20029;-66
2022/06/25 07:31:19;;;;;;;10.82;5.78;;;31.90;99.90;;;;;;5054964;28;20028;-66
2022/06/25 07:33:46;;;;;;;51.58;41.72;;;31.90;99.10;;;;;;5055725;28;20053;-64
2022/06/25 07:36:13;;;;;;;19.67;9.02;;;31.90;99.90;;;;;;5053589;28;20029;-66
2022/06/25 07:38:40;;;;;;;16.38;7.82;;;31.90;99.50;;;;;;5052964;28;20111;-62
2022/06/25 07:41:07;;;;;;;15.68;7.72;;;31.90;99.90;;;;;;5055447;28;20398;-65
2022/06/25 07:43:34;;;;;;;14.48;8.35;;;32.00;99.00;;;;;;5054075;28;20078;-66
2022/06/25 07:46:00;;;;;;;12.95;6.43;;;32.00;99.20;;;;;;5052922;28;20013;-64
2022/06/25 07:48:27;;;;;;;17.77;10.23;;;32.00;99.50;;;;;;5054642;28;20032;-65
2022/06/25 07:53:40;;;;;;;15.27;9.10;;;32.10;99.00;;;;;;5054835;28;20029;-65
2022/06/25 07:56:07;;;;;;;13.98;8.02;;;32.00;98.40;;;;;;5045180;28;20017;-65
2022/06/25 07:58:34;;;;;;;16.25;8.43;;;32.00;98.20;;;;;;5051881;28;20082;-65
2022/06/25 08:01:01;;;;;;;31.23;25.13;;;32.00;98.10;;;;;;5052446;28;20079;-65
2022/06/25 08:03:28;;;;;;;12.68;7.28;;;32.00;98.80;;;;;;5040464;28;20352;-65
2022/06/25 08:05:55;;;;;;;17.67;10.32;;;31.90;97.60;;;;;;5033626;28;20025;-65
2022/06/25 08:08:22;;;;;;;52.90;43.45;;;31.90;99.00;;;;;;5032545;28;20084;-64
2022/06/25 08:10:49;;;;;;;47.08;39.20;;;31.80;99.30;;;;;;5033426;28;20040;-64
2022/06/25 08:13:16;;;;;;;85.00;69.57;;;31.80;98.90;;;;;;5047907;28;20389;-65
2022/06/25 08:15:43;;;;;;;72.15;56.63;;;31.80;98.50;;;;;;5033314;28;20025;-64
2022/06/25 08:18:09;;;;;;;66.93;51.28;;;31.80;99.00;;;;;;5031378;28;20521;-65
2022/06/25 08:20:36;;;;;;;43.47;29.90;;;31.80;99.20;;;;;;5031581;28;20482;-66
2022/06/25 08:23:03;;;;;;;42.80;32.15;;;31.70;97.50;;;;;;5031737;28;20022;-65
2022/06/25 08:25:30;;;;;;;96.18;75.15;;;31.70;97.90;;;;;;5031348;28;20033;-65
2022/06/25 08:27:56;;;;;;;57.47;44.58;;;31.60;98.30;;;;;;5051259;28;20048;-65
2022/06/25 08:30:25;;;;;;;42.90;27.83;;;31.40;99.00;;;;;;5053228;28;20030;-65
2022/06/25 08:32:53;;;;;;;27.00;14.13;;;31.20;99.10;;;;;;5052966;28;20048;-65
2022/06/25 08:35:19;;;;;;;23.90;11.75;;;31.00;99.10;;;;;;5038823;28;20041;-65
2022/06/25 08:37:48;;;;;;;66.80;49.97;;;30.70;99.60;;;;;;5033128;28;20079;-65
2022/06/25 08:40:17;;;;;;;55.17;43.38;;;30.60;99.90;;;;;;5033017;28;20024;-65
2022/06/25 08:42:44;;;;;;;62.88;38.38;;;30.60;99.90;;;;;;5033261;28;20021;-65
2022/06/25 08:45:11;;;;;;;54.45;32.65;;;30.50;99.90;;;;;;5032840;28;20125;-66
2022/06/25 08:47:49;;;;;;;58.45;41.88;;;30.40;99.90;;;;;;5033221;28;20029;-65
2022/06/25 08:50:20;;;;;;;78.25;56.97;;;30.40;99.90;;;;;;5033356;28;20017;-65
2022/06/25 08:52:49;;;;;;;45.70;33.35;;;30.40;99.90;;;;;;5033050;28;20021;-65
2022/06/25 08:55:36;;;;;;;47.53;34.17;;;30.30;99.90;;;;;;5040333;28;20751;-65
2022/06/25 08:58:05;;;;;;;54.85;35.45;;;30.30;99.90;;;;;;5052083;28;20025;-65
2022/06/25 09:00:34;;;;;;;111.10;79.82;;;30.20;99.90;;;;;;5052361;28;20021;-65
2022/06/25 09:03:02;;;;;;;27.15;17.00;;;30.10;99.90;;;;;;5052592;28;20021;-65
2022/06/25 09:05:35;;;;;;;15.95;7.28;;;29.80;99.90;;;;;;5052399;28;20029;-64
2022/06/25 09:08:05;;;;;;;15.00;6.03;;;29.50;99.90;;;;;;5051641;28;20501;-64
2022/06/25 09:10:33;;;;;;;7.22;4.78;;;29.30;99.90;;;;;;5055205;28;20040;-65
2022/06/25 09:13:02;;;;;;;16.65;6.38;;;29.10;99.90;;;;;;5056679;28;20056;-65
2022/06/25 09:15:41;;;;;;;11.57;5.28;;;29.10;99.90;;;;;;5056297;28;20107;-65
2022/06/25 09:18:19;;;;;;;8.48;4.13;;;29.10;99.90;;;;;;5056454;28;20017;-65
2022/06/25 09:20:57;;;;;;;9.23;4.43;;;28.90;99.90;;;;;;5055312;28;20021;-67
2022/06/25 09:23:24;;;;;;;11.80;7.32;;;28.80;99.90;;;;;;5054818;28;20021;-66
2022/06/25 09:26:05;;;;;;;23.65;10.63;;;28.70;99.90;;;;;;5054373;28;20366;-67
2022/06/25 09:28:38;;;;;;;21.83;10.43;;;28.60;99.90;;;;;;5054729;28;20389;-66
2022/06/25 09:31:04;;;;;;;16.80;9.35;;;28.50;99.90;;;;;;5054961;28;20445;-66
2022/06/25 09:33:33;;;;;;;16.00;7.97;;;28.30;99.90;;;;;;5055458;28;20084;-67
2022/06/25 09:36:00;;;;;;;11.63;7.47;;;28.30;99.90;;;;;;5056034;28;20053;-66
2022/06/25 09:38:27;;;;;;;14.63;7.65;;;28.20;99.90;;;;;;5056319;28;20496;-66
2022/06/25 09:40:57;;;;;;;10.98;7.15;;;28.20;99.90;;;;;;5056447;28;20435;-67
2022/06/25 09:43:26;;;;;;;14.75;8.18;;;28.10;99.90;;;;;;5056321;28;20429;-66
2022/06/25 09:45:56;;;;;;;21.23;9.13;;;28.10;99.90;;;;;;5038965;28;20074;-66
2022/06/25 09:48:27;;;;;;;17.80;10.45;;;28.10;99.90;;;;;;5036176;28;20036;-66
2022/06/25 09:51:05;;;;;;;23.33;9.73;;;28.10;99.90;;;;;;5036143;28;20030;-66
2022/06/25 09:53:34;;;;;;;15.23;9.32;;;28.00;99.90;;;;;;5036086;28;20041;-66
2022/06/25 09:56:02;;;;;;;14.50;9.18;;;28.00;99.90;;;;;;5035580;28;20426;-66
2022/06/25 09:58:32;;;;;;;13.93;7.93;;;28.00;99.90;;;;;;5035831;28;20371;-67
2022/06/25 10:00:59;;;;;;;18.48;10.05;;;28.10;99.90;;;;;;5036152;28;20029;-66
2022/06/25 10:03:26;;;;;;;20.92;9.18;;;28.00;99.90;;;;;;5035972;28;20037;-66
2022/06/25 10:05:55;;;;;;;14.23;8.60;;;28.00;99.90;;;;;;5035716;28;20022;-66
2022/06/25 10:08:24;;;;;;;16.70;10.13;;;28.00;99.90;;;;;;5035858;28;20029;-66
2022/06/25 10:10:52;;;;;;;19.35;10.20;;;28.00;99.90;;;;;;5035748;28;20437;-66
2022/06/25 10:13:19;;;;;;;16.13;9.20;;;27.90;99.90;;;;;;5035898;28;20052;-66
2022/06/25 10:15:46;;;;;;;16.92;10.43;;;27.90;99.90;;;;;;5035370;28;20382;-66
2022/06/25 10:18:13;;;;;;;26.13;13.38;;;27.90;99.90;;;;;;5035390;28;20061;-66
2022/06/25 10:20:41;;;;;;;27.60;16.02;;;27.90;99.90;;;;;;5035353;28;20037;-66
2022/06/25 10:23:10;;;;;;;31.00;19.52;;;27.90;99.90;;;;;;5035755;28;20032;-66
2022/06/25 10:25:39;;;;;;;34.63;21.90;;;27.90;99.90;;;;;;5035167;28;20104;-67
2022/06/25 10:28:15;;;;;;;33.55;22.83;;;27.90;99.90;;;;;;5035519;28;20482;-66
2022/06/25 10:30:54;;;;;;;38.65;21.27;;;27.90;99.90;;;;;;5035592;28;20033;-64
2022/06/25 10:33:25;;;;;;;32.83;16.30;;;27.80;99.90;;;;;;5035343;28;20061;-65
2022/06/25 10:35:55;;;;;;;16.13;8.90;;;27.80;99.90;;;;;;5034980;28;20033;-65
2022/06/25 10:38:24;;;;;;;9.88;6.50;;;27.70;99.90;;;;;;5034953;28;20029;-65
2022/06/25 10:43:50;;;;;;;35.58;23.65;;;27.60;99.90;;;;;;4955141;29;20035;-66
2022/06/25 10:46:41;;;;;;;15.43;8.88;;;27.60;99.90;;;;;;4990224;28;20427;-66
2022/06/25 10:49:10;;;;;;;9.73;6.60;;;27.60;99.90;;;;;;4993927;28;20045;-67
2022/06/25 10:51:48;;;;;;;17.40;11.85;;;27.60;99.90;;;;;;4993962;28;20444;-66
2022/06/25 10:54:36;;;;;;;45.83;32.03;;;27.60;99.90;;;;;;4993251;28;20026;-66
2022/06/25 10:57:04;;;;;;;52.50;40.60;;;27.60;99.90;;;;;;4993731;28;20169;-65
2022/06/25 10:59:35;;;;;;;17.60;11.73;;;27.60;99.90;;;;;;4993446;28;20070;-66
2022/06/25 11:02:05;;;;;;;18.25;11.50;;;27.70;99.90;;;;;;4993880;28;20177;-66
2022/06/25 11:04:33;;;;;;;20.48;12.05;;;27.70;99.90;;;;;;4992992;28;20042;-66
2022/06/25 11:07:09;;;;;;;20.08;12.65;;;27.60;99.90;;;;;;4993535;28;20435;-66
2022/06/25 11:09:37;;;;;;;17.98;10.48;;;27.60;99.90;;;;;;4993610;28;20026;-66
2022/06/25 11:12:06;;;;;;;17.48;11.30;;;27.40;99.90;;;;;;4993279;28;20053;-65
2022/06/25 11:14:33;;;;;;;16.73;10.40;;;27.40;99.90;;;;;;4992741;28;20065;-65
2022/06/25 11:17:09;;;;;;;16.00;10.65;;;27.40;99.90;;;;;;4993344;28;20034;-65
2022/06/25 11:19:36;;;;;;;16.10;10.60;;;27.40;99.90;;;;;;4993013;28;20035;-65
2022/06/25 11:22:03;;;;;;;14.85;9.93;;;27.40;99.90;;;;;;4993383;28;20030;-65
2022/06/25 11:24:32;;;;;;;12.93;9.13;;;27.40;99.90;;;;;;4992583;28;20026;-65
2022/06/25 11:29:40;;;;;;;13.63;8.30;;;27.40;99.90;;;;;;5034519;28;20124;-68
2022/06/25 11:32:08;;;;;;;371.13;241.35;;;27.40;99.90;;;;;;5033224;28;20479;-66
2022/06/25 11:34:36;;;;;;;87.85;59.78;;;27.40;99.90;;;;;;5036880;28;20052;-68
2022/06/25 11:37:05;;;;;;;244.68;161.40;;;27.50;99.90;;;;;;5052950;28;20485;-67
2022/06/25 11:39:32;;;;;;;17.25;12.77;;;27.50;99.90;;;;;;5051149;28;20113;-71
2022/06/25 11:42:00;;;;;;;60.95;46.92;;;27.50;99.90;;;;;;5054018;28;20028;-67
2022/06/25 11:44:27;;;;;;;59.63;43.80;;;27.50;99.90;;;;;;5053092;28;20025;-69
2022/06/25 11:46:54;;;;;;;24.05;16.38;;;27.70;99.90;;;;;;5034290;28;20489;-68
2022/06/25 11:49:22;;;;;;;49.63;44.13;;;27.60;99.90;;;;;;5034626;28;20030;-69
2022/06/25 11:51:55;;;;;;;39.35;29.52;;;27.60;99.90;;;;;;5042410;28;20117;-70
2022/06/25 11:54:24;;;;;;;20.52;13.90;;;27.60;99.90;;;;;;5053572;28;20056;-68
2022/06/25 11:57:17;;;;;;;13.32;8.75;;;27.60;99.90;;;;;;5033760;28;20040;-70
2022/06/25 11:59:44;;;;;;;15.65;9.50;;;27.50;99.90;;;;;;5033816;28;20382;-69
2022/06/25 12:02:11;;;;;;;19.90;13.85;;;27.50;99.90;;;;;;5048003;28;20029;-72
2022/06/25 12:04:59;;;;;;;42.92;24.73;;;27.50;99.90;;;;;;5053258;28;20035;-69
2022/06/25 12:07:28;;;;;;;48.22;33.30;;;27.60;99.90;;;;;;5054047;28;20024;-68
2022/06/25 12:09:57;;;;;;;34.17;19.20;;;27.70;99.90;;;;;;5053609;28;20035;-68
2022/06/25 12:12:25;;;;;;;21.92;13.13;;;27.50;99.90;;;;;;5053520;28;20381;-67
2022/06/25 12:14:54;;;;;;;22.98;13.43;;;27.50;99.90;;;;;;5053148;28;20539;-65
2022/06/25 12:17:20;;;;;;;19.15;13.30;;;27.40;99.90;;;;;;5053733;28;20037;-68
2022/06/25 12:19:51;;;;;;;22.65;14.07;;;27.30;99.90;;;;;;5053396;28;20392;-68
2022/06/25 12:22:29;;;;;;;16.90;10.65;;;27.30;99.90;;;;;;5053261;28;20052;-67
2022/06/25 12:24:58;;;;;;;22.48;11.07;;;27.20;99.90;;;;;;5052872;28;20049;-67
2022/06/25 12:27:25;;;;;;;17.02;10.27;;;27.30;99.90;;;;;;5051631;28;20048;-67
2022/06/25 12:29:55;;;;;;;15.07;8.57;;;27.30;99.90;;;;;;5051210;28;20029;-66
2022/06/25 12:32:52;;;;;;;19.27;8.00;;;27.20;99.90;;;;;;5050972;28;20041;-66
2022/06/25 12:35:20;;;;;;;12.90;7.60;;;27.20;99.90;;;;;;5051079;28;20371;-67
2022/06/25 12:38:09;;;;;;;13.98;7.15;;;27.20;99.90;;;;;;5052060;28;20025;-66
2022/06/25 12:40:39;;;;;;;9.02;5.63;;;27.20;99.90;;;;;;5052118;28;20017;-65
2022/06/25 12:43:10;;;;;;;11.25;6.30;;;27.20;99.90;;;;;;5053086;28;20071;-66
2022/06/25 12:45:39;;;;;;;10.30;6.03;;;27.20;99.90;;;;;;5052570;28;20367;-66
2022/06/25 12:48:09;;;;;;;11.35;5.93;;;27.30;99.90;;;;;;5053221;28;20531;-66
2022/06/25 12:50:37;;;;;;;9.18;5.97;;;27.30;99.90;;;;;;5052966;28;20033;-66
2022/06/25 12:53:09;;;;;;;9.35;6.47;;;27.30;99.90;;;;;;5052766;28;20029;-68
2022/06/25 12:55:36;;;;;;;11.15;6.00;;;27.20;99.90;;;;;;5044148;28;20082;-67
2022/06/25 12:58:05;;;;;;;12.70;7.40;;;27.20;99.90;;;;;;5032781;28;20033;-66
2022/06/25 13:00:37;;;;;;;9.70;6.75;;;27.20;99.90;;;;;;5032802;28;20021;-68
2022/06/25 13:03:05;;;;;;;11.18;7.70;;;27.20;99.90;;;;;;5032922;28;20470;-67